Date,TemperatureHighF,TemperatureAvgF,TemperatureLowF,DewpointHighF,DewpointAvgF,DewpointLowF,HumidityHigh,HumidityAvg,HumidityLow,PressureMaxIn,PressureMinIn,WindSpeedMaxMPH,WindSpeedAvgMPH,GustSpeedMaxMPH,PrecipitationSumIn
2014-1-1,35.5,30.5,22.7,30.2,24.7,18.0,92,79,70,29.52,29.16,16,6,24,0.00
2014-1-2,30.2,27.5,22.9,28.3,26.0,21.5,97,94,91,30.07,29.52,4,0,7,0.00
2014-1-3,30.2,28.3,23.6,29.5,27.0,21.7,97,95,88,30.26,30.07,4,1,6,0.00
2014-1-4,34.9,29.2,25.2,28.0,25.8,23.3,97,88,67,30.24,29.59,11,4,18,0.00
2014-1-5,32.5,30.6,26.4,30.9,28.9,25.2,97,93,90,29.72,29.50,8,3,13,0.00
2014-1-6,39.1,32.5,27.2,32.8,30.2,26.1,97,91,73,29.73,29.68,6,1,10,0.07
2014-1-7,27.5,24.0,21.1,26.5,22.8,19.6,97,95,92,29.69,29.44,2,0,4,0.00
2014-1-8,27.4,25.3,22.0,25.0,23.0,20.5,95,91,87,29.44,29.21,6,2,10,0.00
2014-1-9,28.9,26.9,23.9,28.2,26.1,22.7,97,96,95,29.38,29.22,3,0,4,0.00
2014-1-10,26.3,23.5,20.4,25.6,22.5,19.2,97,96,95,29.43,29.32,2,1,5,0.00
2014-1-11,20.2,16.5,11.2,19.2,15.0,9.1,96,94,91,29.32,29.13,3,1,5,0.00
2014-1-12,12.4,8.1,4.1,10.5,5.9,1.6,92,91,89,29.42,29.13,2,1,5,0.00
2014-1-13,17.5,14.7,12.4,14.8,12.9,10.5,94,92,88,29.61,29.11,5,2,10,0.00
2014-1-14,33.7,23.6,15.5,29.5,21.4,13.3,97,91,75,29.55,28.87,10,4,17,0.00
2014-1-15,33.9,27.8,23.3,30.1,25.2,19.7,97,90,77,29.71,29.56,10,2,18,0.00
2014-1-16,32.3,30.5,27.8,31.8,29.6,26.8,98,97,95,29.72,29.40,7,4,16,0.01
2014-1-17,44.8,37.5,28.9,38.7,33.2,28.2,97,85,66,29.65,29.08,18,6,27,1.03
2014-1-18,42.2,37.9,34.2,34.6,31.7,26.4,93,79,64,29.78,29.09,11,5,21,0.08
2014-1-19,37.6,30.2,25.8,28.8,26.5,23.8,93,86,63,29.90,29.79,6,3,15,0.00
2014-1-20,40.9,32.9,27.8,28.1,25.4,23.0,84,74,59,29.89,29.65,14,5,21,0.00
2014-1-21,43.4,35.4,27.8,35.9,30.0,23.3,95,81,59,29.70,29.43,12,3,20,0.02
2014-1-22,45.9,37.1,33.9,39.0,34.3,32.4,96,90,71,29.71,29.52,16,4,26,0.14
2014-1-23,46.7,38.6,34.5,39.4,36.5,33.7,98,92,70,29.79,29.49,18,3,27,0.48
2014-1-24,47.3,40.7,32.2,40.2,36.3,30.8,97,85,64,30.14,29.57,13,4,21,0.13
2014-1-25,39.7,35.0,31.8,36.2,33.8,31.0,97,95,84,30.16,29.98,5,3,9,0.05
2014-1-26,49.7,37.2,31.4,38.0,33.0,29.7,97,86,62,30.03,29.92,16,3,23,0.01
2014-1-27,41.5,35.2,31.3,34.6,31.4,29.1,92,86,76,29.94,29.71,7,3,13,0.00
2014-1-28,41.0,34.1,27.0,34.9,31.4,25.9,96,90,78,30.08,29.86,4,0,7,0.00
2014-1-29,30.1,25.7,22.4,26.4,23.7,20.9,96,92,84,30.18,30.07,4,1,6,0.00
2014-1-30,23.4,18.6,12.8,20.6,16.5,10.7,94,92,86,30.25,30.18,2,0,5,0.00
2014-1-31,17.8,12.0,7.8,14.3,9.6,5.2,93,90,86,30.32,30.23,3,0,4,0.00
2014-2-1,20.8,8.7,4.7,15.3,-14.4,-99.9,92,69,78,30.42,30.32,2,-98,3,0.00
2014-2-2,25.2,13.8,5.4,17.1,9.6,2.9,91,84,69,30.43,30.38,3,1,15,0.00
2014-2-3,21.2,17.1,11.9,15.9,13.0,9.3,89,84,78,30.59,30.43,4,2,10,0.00
2014-2-4,25.1,18.1,10.9,16.4,13.3,8.5,92,81,68,30.77,30.59,3,1,6,0.00
2014-2-5,18.6,9.6,2.5,11.1,5.9,-0.2,92,85,69,30.77,30.60,4,0,5,0.00
2014-2-6,23.1,8.9,0.7,15.8,5.1,-2.3,91,85,54,30.60,29.76,10,3,18,0.00
2014-2-7,26.5,24.3,18.4,9.0,7.0,4.8,61,47,41,30.16,29.75,27,10,45,0.02
2014-2-8,20.3,13.9,7.6,7.3,4.4,1.0,82,66,53,30.29,30.16,7,2,16,0.00
2014-2-9,21.4,12.7,5.6,2.0,-1.4,-5.4,76,55,35,30.19,29.90,22,7,34,0.00
2014-2-10,18.0,12.0,4.3,-0.3,-3.3,-5.7,66,50,38,30.00,29.89,22,5,35,0.00
2014-2-11,13.5,2.9,-6.8,-0.8,-5.7,-11.1,84,68,50,29.88,29.48,3,0,9,0.00
2014-2-12,8.3,1.9,-6.0,1.1,-5.8,-10.8,82,71,48,29.48,29.06,6,1,9,0.00
2014-2-13,7.8,3.2,-1.9,1.9,-2.0,-5.8,85,78,71,29.07,28.92,10,2,14,0.00
2014-2-14,26.5,14.7,2.7,13.2,3.5,-2.4,81,62,39,29.10,28.73,27,8,40,0.00
2014-2-15,19.7,15.6,9.8,14.4,8.0,1.4,91,73,48,28.96,28.58,12,3,18,0.00
2014-2-16,23.7,16.1,11.6,14.2,11.5,8.7,91,82,61,29.07,28.72,7,2,11,0.00
2014-2-17,23.4,17.2,10.6,14.6,10.8,5.9,87,76,56,29.28,29.03,7,2,11,0.00
2014-2-18,22.4,17.9,10.8,20.4,10.9,4.4,93,74,49,29.36,29.25,8,4,14,0.00
2014-2-19,22.6,20.4,17.6,20.4,18.0,15.0,94,90,85,29.74,29.36,5,1,7,0.02
2014-2-20,20.9,15.8,0.0,18.6,13.0,-4.2,92,89,82,30.15,29.74,3,0,4,0.00
2014-2-21,13.7,5.8,-3.9,9.0,1.8,-7.8,89,83,75,30.36,30.15,4,1,8,0.00
2014-2-22,23.6,18.3,13.5,13.7,9.8,6.4,81,69,57,30.38,30.25,7,4,13,0.00
2014-2-23,28.1,17.8,7.9,12.9,8.6,3.3,82,67,51,30.25,30.15,5,2,9,0.00
2014-2-24,26.3,13.2,3.4,9.7,3.8,-1.6,83,67,48,30.17,30.09,5,1,10,0.00
2014-2-25,29.1,16.6,6.4,6.6,3.6,0.5,80,58,37,30.19,29.99,6,2,10,0.00
2014-2-26,33.6,26.6,19.3,22.8,12.5,3.7,70,55,42,29.99,29.76,6,2,12,0.00
2014-2-27,46.7,36.3,30.8,29.5,23.0,18.6,79,59,44,29.96,29.73,4,1,7,0.00
2014-2-28,41.4,34.6,23.4,33.4,29.4,21.7,96,82,70,30.11,29.97,3,0,5,0.00
2014-3-1,36.0,25.4,17.1,30.0,22.7,15.3,96,90,73,30.02,29.95,2,0,4,0.00
2014-3-2,35.5,21.1,8.5,23.6,16.4,6.1,95,83,57,29.96,29.82,1,0,3,0.00
2014-3-3,32.6,21.0,7.1,26.4,17.3,4.0,95,86,65,29.86,29.81,7,1,7,0.00
2014-3-4,35.2,30.5,26.2,29.6,22.7,18.4,96,74,56,29.87,29.76,15,6,19,0.00
2014-3-5,31.0,26.2,19.0,29.9,24.5,17.1,96,93,90,29.76,29.67,3,1,9,0.01
2014-3-6,25.8,17.9,7.9,20.2,15.0,5.6,94,88,78,29.74,29.70,4,2,9,0.00
2014-3-7,25.1,12.8,4.8,14.6,7.5,1.3,93,80,61,29.74,29.28,6,2,10,0.00
2014-3-8,27.9,12.8,2.3,11.9,4.7,-2.9,87,71,44,29.28,29.05,7,2,12,0.00
2014-3-9,22.7,9.7,-4.1,6.8,0.0,-8.9,88,66,48,29.46,29.12,4,2,8,0.00
2014-3-10,39.6,23.2,10.0,32.4,15.2,0.2,84,72,57,29.52,28.96,23,8,32,0.03
2014-3-11,42.3,38.8,34.1,33.7,32.2,29.8,94,78,66,29.18,28.99,21,12,30,0.06
2014-3-12,36.8,31.4,28.9,33.1,27.6,21.6,97,86,54,29.59,29.18,15,2,24,0.06
2014-3-13,42.7,36.3,32.1,29.9,25.8,19.8,85,66,49,29.45,29.06,20,7,32,0.00
2014-3-14,44.9,34.2,20.3,33.0,27.7,17.8,92,78,56,29.49,28.96,20,7,32,0.00
2014-3-15,24.8,18.7,9.2,17.8,11.8,4.7,92,76,48,29.80,29.50,7,2,12,0.03
2014-3-16,24.3,15.5,5.6,14.4,8.8,1.6,89,75,51,29.72,29.66,6,2,10,0.00
2014-3-17,34.1,24.7,19.8,26.2,17.3,11.6,84,73,65,29.72,29.65,7,5,9,0.00
2014-3-18,38.5,29.2,23.0,24.4,20.7,17.0,87,72,49,30.00,29.72,4,2,9,0.00
2014-3-19,38.5,27.1,18.2,18.7,13.9,10.0,86,59,39,30.23,30.00,6,2,10,0.00
2014-3-20,35.9,24.3,13.2,13.1,9.2,5.2,71,54,36,30.32,30.24,17,4,22,0.00
2014-3-21,37.4,25.1,12.4,14.3,9.5,4.4,70,52,36,30.37,30.32,8,4,14,0.00
2014-3-22,38.2,25.8,14.4,14.1,9.4,5.5,68,51,31,30.49,30.37,14,4,25,0.00
2014-3-23,39.7,27.5,12.9,13.9,8.2,4.1,68,45,29,30.51,30.34,11,4,16,0.00
2014-3-24,42.4,28.3,11.8,14.5,8.2,4.4,74,46,23,30.34,29.93,15,4,17,0.00
2014-3-25,43.3,34.5,22.2,12.9,6.6,1.4,47,31,21,29.93,29.71,19,6,28,0.00
2014-3-26,42.8,30.7,19.1,14.3,10.0,6.5,59,43,27,29.78,29.72,14,4,23,0.00
2014-3-27,40.1,26.5,11.7,15.6,11.4,7.9,86,56,30,29.84,29.78,4,1,7,0.00
2014-3-28,39.7,27.3,12.0,17.8,11.5,7.6,84,54,31,29.86,29.73,4,1,8,0.00
2014-3-29,40.1,26.2,12.7,14.1,9.8,5.8,75,51,28,29.86,29.74,4,1,8,0.00
2014-3-30,41.4,25.8,10.7,17.0,12.3,7.8,89,61,28,30.07,29.87,3,1,6,0.00
2014-3-31,40.6,26.5,11.6,16.9,13.9,8.9,90,62,34,30.13,30.00,3,1,6,0.00
2014-4-1,42.3,28.6,16.6,17.9,13.9,10.1,81,56,32,30.01,29.87,5,2,10,0.00
2014-4-2,43.6,29.6,15.2,19.2,15.8,11.8,87,59,32,29.92,29.81,4,1,6,0.00
2014-4-3,41.4,27.7,13.0,19.9,16.1,10.4,90,65,38,29.82,29.58,4,1,7,0.00
2014-4-4,42.3,34.7,26.7,24.8,21.4,18.6,73,59,42,29.59,29.45,5,2,8,0.00
2014-4-5,44.1,36.0,28.4,29.7,25.2,23.2,82,66,46,29.46,29.39,5,2,8,0.00
2014-4-6,48.2,39.5,32.7,34.1,30.1,26.9,95,71,47,29.57,29.46,7,1,11,0.02
2014-4-7,41.3,35.0,28.8,34.4,28.1,12.5,94,77,45,29.53,29.20,8,2,18,0.00
2014-4-8,30.7,25.7,21.5,18.3,9.5,1.4,74,50,37,29.61,29.28,9,4,17,0.00
2014-4-9,32.0,22.4,12.3,10.0,3.6,-0.8,57,45,32,29.88,29.61,7,4,12,0.00
2014-4-10,36.6,23.4,11.3,17.5,4.0,-1.6,68,44,26,30.10,29.88,6,3,10,0.00
2014-4-11,41.8,29.6,16.2,16.9,12.6,9.7,84,52,27,30.28,30.10,4,2,7,0.00
2014-4-12,35.6,31.7,27.9,29.6,21.2,12.9,89,65,46,30.28,30.12,7,3,12,0.00
2014-4-13,46.5,37.1,32.3,34.2,30.0,25.2,89,76,50,30.12,30.00,8,3,14,0.00
2014-4-14,49.1,39.0,27.6,33.8,28.8,25.9,95,69,44,30.03,29.82,6,2,11,0.00
2014-4-15,46.1,38.0,30.8,37.8,30.6,24.4,89,75,64,29.83,29.81,4,1,6,0.00
2014-4-16,50.6,40.8,33.2,35.9,32.7,30.0,93,75,46,29.82,29.57,6,2,10,0.00
2014-4-17,51.7,39.9,26.9,31.0,28.2,25.1,93,66,39,29.57,29.33,4,1,8,0.00
2014-4-18,51.2,40.6,31.4,34.5,30.6,27.0,89,69,43,29.66,29.36,7,1,13,0.00
2014-4-19,53.5,41.4,29.0,33.7,28.0,22.6,90,63,30,29.66,29.44,8,3,13,0.00
2014-4-20,58.1,44.2,28.5,34.4,26.6,22.4,82,53,28,29.90,29.46,7,2,12,0.00
2014-4-21,57.7,44.7,29.7,32.5,30.3,27.4,92,60,34,29.97,29.90,5,1,10,0.00
2014-4-22,56.8,44.7,28.8,31.8,28.4,25.3,90,57,32,29.95,29.70,7,2,13,0.00
2014-4-23,50.2,42.2,35.4,36.7,33.6,26.7,87,72,51,29.73,29.68,8,3,11,0.00
2014-4-24,53.5,40.9,30.1,34.8,30.5,26.0,94,70,37,29.70,29.59,5,1,9,0.00
2014-4-25,48.9,42.3,33.0,29.4,25.3,18.0,77,53,30,29.63,29.45,15,5,23,0.00
2014-4-26,50.5,44.9,38.3,29.6,24.9,19.6,64,46,31,29.46,29.37,11,5,16,0.00
2014-4-27,59.4,47.9,34.0,32.2,26.2,20.5,73,45,23,29.52,29.39,10,4,12,0.00
2014-4-28,55.1,44.4,32.0,36.6,32.1,28.3,87,64,39,30.00,29.52,7,2,12,0.00
2014-4-29,56.4,44.0,31.1,38.2,33.5,29.0,95,69,42,30.30,30.01,4,1,9,0.00
2014-4-30,61.1,47.6,30.4,36.6,32.9,28.1,92,60,36,30.51,30.30,4,1,8,0.00
2014-5-1,66.5,49.7,29.9,36.4,33.3,27.9,93,58,30,30.57,30.34,6,2,12,0.00
2014-5-2,71.6,56.3,39.8,40.3,33.7,29.7,68,45,25,30.34,30.06,7,3,11,0.00
2014-5-3,69.4,54.4,34.7,38.4,35.3,31.5,91,53,28,30.11,29.95,4,0,8,0.00
2014-5-4,65.9,52.6,34.8,41.1,36.9,31.6,91,58,36,29.98,29.82,9,2,12,0.00
2014-5-5,58.2,47.7,34.1,40.5,37.4,32.1,95,69,50,29.90,29.85,7,2,11,0.00
2014-5-6,46.1,43.5,39.8,44.3,40.7,36.2,97,90,77,29.91,29.77,4,1,8,0.35
2014-5-7,57.7,48.0,37.8,44.5,38.8,36.4,98,74,45,29.80,29.73,4,1,9,0.00
2014-5-8,62.5,50.5,38.2,38.3,35.1,28.1,89,60,32,29.88,29.74,6,2,11,0.00
2014-5-9,65.2,52.6,36.2,35.7,31.1,27.8,85,47,26,30.08,29.89,7,3,17,0.00
2014-5-10,67.3,55.2,40.4,32.9,30.8,28.9,65,42,25,30.18,30.08,6,3,13,0.00
2014-5-11,71.5,57.0,38.5,40.0,33.8,29.0,88,46,21,30.25,30.16,5,2,12,0.00
2014-5-12,63.8,49.6,38.1,42.8,39.8,35.8,95,71,44,30.34,30.22,5,2,9,0.00
2014-5-13,69.6,53.9,36.2,45.2,37.2,23.0,96,60,21,30.31,30.15,7,1,14,0.00
2014-5-14,71.1,57.1,42.7,40.9,26.3,19.8,66,35,15,30.36,30.22,6,3,14,0.00
2014-5-15,69.9,56.7,40.0,39.6,33.7,26.8,86,47,20,30.43,30.27,5,1,8,0.00
2014-5-16,74.6,59.3,40.1,46.9,35.5,30.1,85,46,20,30.27,30.02,5,1,13,0.00
2014-5-17,74.7,61.1,44.0,45.5,41.2,37.9,91,51,28,30.05,29.79,6,1,8,0.00
2014-5-18,60.4,55.3,46.4,39.3,31.0,25.7,52,40,31,29.83,29.72,8,4,14,0.00
2014-5-19,58.4,50.8,42.6,28.4,25.8,23.4,53,39,27,29.80,29.72,11,6,16,0.00
2014-5-20,62.0,53.0,40.3,31.9,26.4,24.2,56,37,24,29.88,29.80,6,4,13,0.00
2014-5-21,66.3,53.0,33.8,36.4,31.0,26.3,90,47,23,29.88,29.78,4,1,5,0.00
2014-5-22,63.7,54.3,43.3,41.8,36.0,28.5,83,53,27,29.78,29.70,11,2,13,0.00
2014-5-23,65.4,54.7,40.3,39.0,31.5,24.0,73,44,22,29.87,29.75,4,2,8,0.00
2014-5-24,63.8,51.8,38.6,42.4,37.6,32.0,84,60,33,30.01,29.87,5,1,8,0.00
2014-5-25,60.2,51.3,41.0,44.8,40.9,37.5,92,69,48,30.02,29.94,5,1,6,0.00
2014-5-26,62.1,49.6,37.8,44.1,40.0,36.1,95,72,42,30.08,29.99,7,2,9,0.00
2014-5-27,55.8,50.0,42.9,44.8,42.0,39.1,93,75,54,30.13,30.08,7,2,10,0.01
2014-5-28,58.4,53.1,48.7,46.2,41.6,37.9,84,65,52,30.13,30.07,7,1,8,0.00
2014-5-29,57.5,52.1,47.0,49.6,46.8,44.4,95,82,65,30.09,29.86,3,0,4,0.07
2014-5-30,59.5,53.4,46.8,49.2,42.9,37.4,95,70,46,29.86,29.53,16,4,16,0.10
2014-5-31,54.4,47.5,40.3,41.9,37.7,33.6,92,70,52,30.13,29.50,15,9,22,0.16
2014-6-1,49.7,44.8,41.2,42.0,38.4,34.9,94,79,57,30.22,30.13,11,4,13,0.10
2014-6-2,58.5,46.8,39.9,45.8,41.0,38.2,96,82,57,30.27,30.20,6,1,9,0.02
2014-6-3,68.6,56.6,40.5,46.3,41.1,36.8,96,61,33,30.23,30.11,7,1,7,0.00
2014-6-4,71.9,60.8,44.9,44.5,40.6,34.1,92,51,26,30.16,30.06,6,1,9,0.00
2014-6-5,66.1,57.9,46.4,43.7,40.8,35.7,80,54,36,30.16,30.03,5,2,8,0.00
2014-6-6,67.4,57.4,40.6,42.2,38.0,31.5,91,52,29,30.07,29.83,6,2,9,0.00
2014-6-7,67.0,58.0,51.1,47.1,42.6,39.3,72,57,39,29.83,29.65,9,2,15,0.00
2014-6-8,63.4,55.1,49.1,45.9,43.7,40.7,83,67,47,29.84,29.68,5,2,11,0.00
2014-6-9,60.3,52.8,46.1,47.0,44.4,42.4,90,74,57,30.00,29.84,9,2,15,0.00
2014-6-10,50.8,48.4,46.1,46.2,44.4,42.0,92,86,76,30.10,30.00,9,3,13,0.06
2014-6-11,60.5,51.4,41.5,44.1,39.2,34.4,93,66,41,30.16,30.08,9,3,11,0.02
2014-6-12,59.9,52.0,43.2,43.8,41.0,35.7,91,68,45,30.10,29.84,5,1,9,0.00
2014-6-13,57.9,51.0,45.4,48.4,46.0,42.6,92,83,66,29.84,29.61,8,2,10,0.02
2014-6-14,58.2,51.6,42.9,50.1,46.4,41.6,97,83,64,29.79,29.64,6,2,9,0.02
2014-6-15,63.5,56.3,51.2,50.6,48.7,44.5,93,77,56,29.83,29.79,6,2,10,0.00
2014-6-16,61.6,54.4,47.8,47.1,43.4,38.2,93,68,47,29.84,29.37,14,3,17,0.01
2014-6-17,65.0,55.9,48.5,46.9,42.5,38.1,79,62,41,29.56,29.31,17,6,23,0.03
2014-6-18,61.4,54.7,45.3,47.1,42.3,39.2,86,64,45,29.80,29.56,6,2,13,0.00
2014-6-19,66.4,56.5,44.8,46.6,42.2,37.7,92,62,38,29.86,29.79,4,1,10,0.00
2014-6-20,71.0,58.5,45.2,52.7,45.2,41.6,91,64,40,29.82,29.64,7,2,18,0.10
2014-6-21,56.3,52.3,47.7,51.5,46.7,42.7,95,82,63,29.82,29.68,10,4,15,0.30
2014-6-22,64.8,56.3,45.7,48.5,45.3,43.1,95,68,48,29.82,29.66,5,2,14,0.00
2014-6-23,67.1,57.8,48.2,50.8,47.6,43.9,90,70,47,29.82,29.73,6,1,11,0.08
2014-6-24,65.0,56.3,47.4,52.9,48.4,46.0,97,77,53,29.84,29.77,10,2,14,0.04
2014-6-25,56.0,50.8,47.3,52.7,48.7,45.7,95,93,85,29.82,29.71,13,8,18,0.60
2014-6-26,53.4,49.2,46.6,49.2,46.8,44.9,96,91,78,29.71,29.67,10,3,13,0.34
2014-6-27,56.3,52.2,47.9,50.8,48.5,46.6,96,88,76,29.74,29.68,6,2,9,0.15
2014-6-28,72.1,60.0,47.3,56.6,50.4,46.2,97,73,44,29.78,29.74,6,1,12,0.00
2014-6-29,73.9,62.2,52.0,55.6,50.8,47.9,91,68,41,29.96,29.78,7,1,12,0.00
2014-6-30,68.2,59.2,49.9,53.4,50.0,46.7,92,73,48,30.08,29.97,9,2,14,0.00
2014-7-1,67.1,60.5,55.0,53.4,50.8,48.5,86,71,52,30.10,29.97,8,2,13,0.00
2014-7-2,73.8,64.4,54.5,59.1,53.5,50.2,92,69,44,29.97,29.78,7,1,10,0.00
2014-7-3,79.2,67.3,56.0,56.8,53.0,47.6,88,62,33,29.85,29.78,2,0,6,0.00
2014-7-4,79.3,68.0,55.1,60.6,54.0,49.9,88,63,37,29.85,29.71,4,0,8,0.00
2014-7-5,78.0,67.0,56.7,56.3,54.1,51.9,89,65,46,29.85,29.74,6,2,12,0.00
2014-7-6,59.4,56.8,54.8,55.9,53.1,51.6,94,87,77,30.00,29.85,2,0,6,0.16
2014-7-7,67.9,60.1,53.0,56.4,51.6,47.9,95,75,54,29.99,29.92,6,1,12,0.02
2014-7-8,70.0,62.3,55.7,54.1,52.3,48.9,92,71,49,29.99,29.92,6,0,10,0.00
2014-7-9,65.2,59.2,53.5,54.9,52.2,48.0,96,78,64,30.05,29.97,5,1,7,0.39
2014-7-10,59.4,55.1,51.9,55.6,52.2,48.3,96,90,69,29.97,29.59,5,2,9,0.32
2014-7-11,69.5,60.3,53.2,56.2,52.8,48.6,96,78,50,29.74,29.58,6,2,12,0.00
2014-7-12,66.1,59.9,53.9,55.4,49.9,45.1,95,71,53,30.01,29.75,8,2,12,0.05
2014-7-13,64.0,56.3,48.7,54.0,49.6,46.1,95,79,57,30.28,30.01,9,3,16,0.12
2014-7-14,66.8,58.6,53.2,52.2,49.1,44.6,90,72,47,30.33,30.24,6,2,10,0.00
2014-7-15,70.0,60.8,53.3,56.4,50.2,46.4,90,70,47,30.28,30.16,6,2,9,0.00
2014-7-16,72.8,63.4,56.1,56.5,51.6,48.5,87,67,43,30.18,30.05,6,1,10,0.00
2014-7-17,68.8,61.0,52.2,54.3,51.5,48.3,93,72,56,30.07,29.85,5,1,11,0.00
2014-7-18,70.0,61.1,54.3,53.1,50.8,47.9,87,70,50,29.86,29.65,4,2,7,0.00
2014-7-19,65.3,59.1,53.0,54.9,52.1,48.3,91,78,64,29.67,29.56,8,4,16,0.11
2014-7-20,68.1,56.9,49.4,54.5,49.3,45.4,95,77,45,29.93,29.63,9,2,12,0.25
2014-7-21,72.8,60.2,44.9,54.2,48.7,43.8,97,70,39,30.05,29.93,4,1,8,0.00
2014-7-22,71.1,60.8,48.2,52.6,49.4,46.0,94,68,46,30.01,29.83,7,2,11,0.00
2014-7-23,64.7,59.4,53.2,54.1,51.1,46.7,93,75,53,29.87,29.79,5,1,8,0.01
2014-7-24,66.5,58.9,53.8,54.4,52.1,49.7,94,79,58,29.84,29.79,7,2,10,0.16
2014-7-25,59.7,54.7,52.6,53.9,52.0,48.7,96,91,80,29.87,29.79,4,1,7,0.15
2014-7-26,70.2,58.7,47.9,53.4,49.1,38.2,98,74,32,29.90,29.85,9,2,15,0.03
2014-7-27,68.3,58.6,46.9,52.9,48.5,44.3,96,71,43,30.02,29.87,11,3,14,0.02
2014-7-28,64.3,56.9,52.4,53.2,49.9,46.7,95,78,57,30.05,29.99,9,3,14,0.02
2014-7-29,74.7,58.2,48.8,59.6,52.5,47.7,97,83,48,30.00,29.91,8,2,14,0.01
2014-7-30,76.1,63.5,50.2,56.1,53.3,48.8,97,72,43,30.26,29.97,3,1,8,0.01
2014-7-31,69.4,62.1,56.2,55.0,52.7,49.6,88,72,52,30.34,30.26,6,2,10,0.02
2014-8-1,68.9,61.6,52.7,55.6,51.7,46.1,93,71,52,30.29,30.14,5,2,10,0.00
2014-8-2,72.4,63.0,55.7,54.1,51.7,48.4,87,68,47,30.15,29.93,6,2,9,0.00
2014-8-3,69.1,59.8,53.7,57.2,53.6,50.4,94,81,62,29.97,29.89,9,2,10,0.01
2014-8-4,65.6,58.8,55.2,58.1,54.1,46.6,96,85,69,29.89,29.68,9,2,13,0.01
2014-8-5,70.2,59.9,50.3,54.2,48.3,45.1,86,67,42,29.93,29.77,8,3,11,0.00
2014-8-6,65.3,60.0,54.9,55.7,50.4,47.1,88,71,57,29.99,29.92,7,2,10,0.00
2014-8-7,67.5,58.7,50.9,53.7,49.6,46.7,93,73,54,29.93,29.64,5,1,8,0.02
2014-8-8,63.0,60.0,57.3,47.1,45.7,44.4,66,59,51,29.64,29.58,13,8,19,0.20
2014-8-9,69.6,62.0,55.9,57.5,50.1,45.5,80,65,50,29.61,29.57,10,3,13,0.04
2014-8-10,72.1,63.1,54.4,59.8,54.4,50.5,91,74,53,29.67,29.60,6,1,10,0.03
2014-8-11,72.6,63.2,56.8,57.5,52.7,48.6,92,70,46,29.76,29.61,12,2,15,0.00
2014-8-12,64.6,58.0,53.5,54.0,50.4,47.0,88,76,63,29.67,29.61,9,2,13,0.05
2014-8-13,63.4,57.9,54.4,56.9,51.8,49.1,94,81,67,29.68,29.59,7,1,11,0.14
2014-8-14,68.1,59.1,51.2,57.4,52.0,48.0,95,79,52,29.70,29.57,13,3,18,0.04
2014-8-15,63.7,57.2,53.3,52.8,51.1,47.4,96,81,60,29.74,29.58,8,3,12,0.09
2014-8-16,64.0,57.7,52.6,54.1,47.2,42.8,91,69,47,29.75,29.56,16,6,22,0.02
2014-8-17,65.3,57.3,53.9,55.3,51.7,47.0,93,82,70,29.73,29.57,4,1,8,0.03
2014-8-18,69.8,60.6,52.1,54.9,52.6,50.0,94,76,56,29.97,29.74,7,2,8,0.00
2014-8-19,71.0,60.9,49.0,58.1,53.1,47.9,96,77,53,30.01,29.93,4,1,7,0.00
2014-8-20,69.7,58.3,48.2,56.8,53.2,47.1,97,84,59,30.12,29.97,4,1,8,0.00
2014-8-21,71.0,59.0,48.3,57.6,53.3,47.5,98,83,57,30.19,30.12,4,1,7,0.00
2014-8-22,68.3,60.0,53.7,56.1,53.7,52.0,96,81,58,30.21,30.16,4,1,8,0.00
2014-8-23,63.4,56.4,46.7,55.8,52.2,45.9,98,86,71,30.24,30.00,4,1,8,0.00
2014-8-24,57.5,54.3,51.0,52.4,50.4,46.8,96,87,68,30.00,29.65,10,2,13,0.20
2014-8-25,61.3,54.1,50.9,53.4,51.1,49.5,97,90,70,29.76,29.61,9,2,12,0.23
2014-8-26,62.5,55.6,43.1,52.6,48.8,42.0,97,79,62,29.92,29.76,5,1,7,0.03
2014-8-27,58.9,54.1,51.2,52.7,49.9,46.5,96,86,68,29.92,29.73,12,6,17,0.43
2014-8-28,58.0,53.6,50.5,53.6,50.0,44.8,96,88,73,29.73,29.61,5,2,8,0.32
2014-8-29,61.1,53.9,49.4,51.6,49.4,44.5,97,86,60,29.62,29.54,4,1,9,0.11
2014-8-30,60.0,49.0,36.2,48.1,39.2,34.3,96,71,42,29.62,29.53,4,1,11,0.00
2014-8-31,62.3,49.6,36.9,43.3,37.5,28.5,97,68,31,29.78,29.57,6,2,12,0.00
2014-9-1,57.3,47.6,34.3,48.1,38.6,32.9,97,73,46,29.93,29.79,8,2,11,0.00
2014-9-2,61.5,56.9,50.7,51.2,48.2,40.3,86,73,65,29.92,29.85,9,6,22,0.01
2014-9-3,61.0,53.0,43.6,47.9,42.9,39.6,90,70,48,30.04,29.92,4,1,9,0.00
2014-9-4,48.3,44.8,41.0,46.9,42.1,38.4,96,90,79,30.01,29.83,3,2,8,0.25
2014-9-5,52.0,49.2,46.3,51.3,48.4,45.2,98,97,96,29.85,29.80,4,2,9,0.48
2014-9-6,61.8,53.6,46.6,52.1,49.4,46.1,98,86,65,29.92,29.85,5,1,7,0.00
2014-9-7,60.8,50.4,39.1,48.4,42.2,36.1,94,75,49,29.98,29.92,4,1,9,0.00
2014-9-8,56.9,49.4,40.9,49.6,45.5,39.6,96,87,73,30.03,29.97,4,1,7,0.00
2014-9-9,56.7,52.8,49.7,53.2,49.2,45.5,95,88,81,30.04,29.99,3,1,7,0.08
2014-9-10,58.5,54.0,50.4,55.0,51.6,47.5,96,91,85,30.09,30.00,3,1,7,0.19
2014-9-11,64.6,57.3,49.0,54.8,50.4,46.3,98,79,59,30.15,30.02,4,1,7,0.00
2014-9-12,64.6,59.3,53.6,53.3,48.8,45.2,90,69,57,30.02,29.66,15,6,19,0.05
2014-9-13,63.8,56.2,53.2,56.6,53.6,51.8,97,91,68,29.73,29.64,3,1,7,0.49
2014-9-14,64.1,54.9,47.4,54.8,51.5,46.6,98,89,65,29.68,29.59,5,1,8,0.03
2014-9-15,54.6,49.2,43.8,52.4,47.0,42.5,97,92,85,29.63,29.55,4,1,7,0.17
2014-9-20,59.8,54.9,48.8,49.9,47.1,44.8,94,76,59,29.66,29.59,6,2,8,0.24
2014-9-21,55.8,49.4,43.7,47.5,43.5,32.3,95,81,59,29.67,29.34,6,2,12,0.01
2014-9-22,54.5,44.1,34.2,41.4,34.1,28.1,93,69,48,29.83,29.36,4,1,10,0.00
2014-9-23,56.4,42.5,35.1,43.5,37.3,33.4,96,84,48,29.93,29.83,3,0,7,0.00
2014-9-24,56.7,41.9,31.6,40.7,34.1,30.6,97,77,42,29.92,29.86,4,1,10,0.01
2014-9-25,56.3,41.7,32.9,43.7,33.5,30.2,93,75,40,29.97,29.86,4,1,12,0.00
2014-9-26,54.6,41.9,29.9,37.2,33.7,28.1,96,75,48,29.89,29.72,3,1,10,0.00
2014-9-27,55.4,45.0,34.6,37.5,33.8,31.4,90,67,43,29.73,29.51,14,3,19,0.00
2014-9-28,55.2,45.4,35.9,38.9,33.2,29.7,83,64,44,29.69,29.53,10,2,26,0.00
2014-9-29,48.2,38.5,29.4,37.0,30.9,26.6,95,76,51,29.99,29.69,10,3,18,0.00
2014-9-30,50.6,39.4,31.1,33.2,26.3,22.7,90,62,34,30.28,29.99,5,1,7,0.00
2014-10-1,49.6,35.6,24.9,32.3,25.7,22.6,94,70,37,30.31,30.18,3,1,6,0.00
2014-10-2,48.1,38.3,27.4,28.9,25.4,22.0,86,62,39,30.18,29.45,13,4,21,0.00
2014-10-3,44.4,37.2,32.8,35.0,29.0,22.6,94,73,42,29.44,29.20,15,5,27,0.10
2014-10-4,41.1,36.8,34.2,36.6,34.7,32.9,96,92,83,29.56,29.30,7,3,14,0.10
2014-10-5,43.7,37.2,32.7,34.9,28.6,20.2,96,74,43,29.68,29.34,6,3,15,0.00
2014-10-6,42.2,35.4,28.4,26.6,21.2,17.4,78,57,37,30.12,29.68,6,2,12,0.00
2014-10-7,38.3,30.1,23.1,23.1,19.6,17.3,80,66,48,30.15,30.04,5,2,9,0.00
2014-10-8,35.1,28.0,20.1,22.0,16.7,12.7,75,63,49,30.04,29.80,13,4,17,0.00
2014-10-9,39.1,30.1,21.1,26.3,19.5,15.9,82,65,50,29.80,29.00,12,4,16,0.00
2014-10-10,37.2,34.9,30.8,36.2,32.4,23.6,96,91,64,29.03,28.93,6,4,10,0.09
2014-10-11,42.0,38.8,35.9,41.0,37.9,35.1,98,97,94,29.45,29.03,5,2,9,0.72
2014-10-12,43.9,37.8,33.7,41.4,36.4,32.9,98,95,90,29.56,29.38,7,3,13,0.00
2014-10-13,46.2,38.8,35.4,38.4,34.8,31.6,97,86,73,29.63,29.39,5,2,12,0.00
2014-10-14,45.8,34.8,28.5,36.1,30.9,27.0,97,86,57,29.53,29.49,4,1,6,0.01
2014-10-15,39.3,33.6,28.5,34.0,30.2,27.5,96,88,72,29.54,29.47,2,0,4,0.00
2014-10-16,40.0,35.7,32.6,36.1,33.2,30.6,94,90,85,29.53,29.48,3,1,6,0.00
2014-10-17,45.1,38.2,32.0,34.0,32.2,29.0,95,80,54,29.52,29.28,7,4,12,0.00
2014-10-18,40.2,34.9,30.6,30.7,28.9,26.6,89,79,65,29.30,29.27,5,2,8,0.00
2014-10-19,39.3,32.1,24.8,31.4,27.3,23.1,95,83,64,29.28,29.02,4,1,9,0.01
2014-10-20,38.9,34.2,31.2,34.8,30.5,26.8,94,86,76,29.23,28.96,4,1,8,0.00
2014-10-21,41.0,34.0,29.3,31.8,29.4,26.0,95,84,66,29.34,29.23,6,2,10,0.00
2014-10-22,44.1,32.2,25.5,30.5,25.1,21.5,92,76,48,29.52,29.23,5,2,9,0.00
2014-10-23,34.9,26.4,18.6,27.4,22.5,16.8,95,86,68,29.76,29.52,5,0,6,0.00
2014-10-24,35.3,27.5,19.6,27.5,23.6,17.9,95,85,67,29.92,29.76,4,1,9,0.00
2014-10-25,32.5,29.2,25.9,30.0,27.8,24.7,97,95,88,29.92,29.82,4,0,6,0.00
2014-10-26,30.2,24.2,18.9,27.0,22.2,17.5,96,92,77,29.99,29.83,3,0,5,0.00
2014-10-27,29.6,20.1,13.0,22.4,16.8,10.4,94,87,72,30.00,29.82,3,1,6,0.00
2014-10-28,28.6,20.0,12.9,17.2,14.6,10.3,92,80,58,29.82,29.46,5,1,7,0.00
2014-10-29,24.9,17.4,9.4,18.9,13.1,6.8,93,83,71,29.70,29.48,4,1,7,0.00
2014-10-30,31.0,21.9,15.9,22.0,17.5,13.7,93,84,63,29.71,29.37,3,0,5,0.00
2014-10-31,25.0,18.2,8.4,18.1,13.9,5.8,93,83,72,29.37,29.21,7,2,11,0.00
2014-11-1,37.6,27.9,21.3,23.1,19.8,16.9,84,73,51,29.24,29.00,9,3,12,0.00
2014-11-2,34.4,28.1,22.9,25.6,21.0,18.6,84,75,62,29.50,29.15,10,2,15,0.00
2014-11-3,33.4,29.7,26.2,26.5,23.6,20.9,90,78,64,29.60,29.48,6,3,11,0.00
2014-11-4,30.7,22.6,17.1,23.5,19.2,14.4,93,87,71,29.64,29.44,5,1,8,0.00
2014-11-5,31.9,24.8,19.2,20.1,17.7,15.2,89,75,59,29.65,29.45,6,3,13,0.00
2014-11-6,28.1,21.5,15.4,20.2,16.8,12.2,90,82,69,29.67,29.43,6,2,13,0.00
2014-11-7,40.1,29.1,23.0,24.3,18.5,15.8,76,65,49,29.68,29.59,7,5,13,0.00
2014-11-8,41.5,33.2,26.5,29.0,23.2,18.8,80,66,59,29.83,29.60,5,2,9,0.00
2014-11-9,47.0,39.5,29.3,32.4,28.7,23.7,84,66,55,29.93,29.80,16,7,26,0.00
2014-11-10,47.5,41.5,31.1,36.1,33.5,29.6,95,74,56,30.15,29.81,15,4,24,0.00
2014-11-11,48.8,38.3,32.5,36.5,32.8,29.6,90,81,54,30.10,29.99,16,4,18,0.00
2014-11-12,48.6,42.2,33.9,34.4,32.0,30.2,86,68,51,30.14,30.07,13,4,24,0.00
2014-11-13,37.4,30.7,22.9,31.6,27.6,21.0,94,88,78,30.15,30.09,4,1,7,0.00
2014-11-14,27.2,21.0,14.4,24.4,19.0,12.0,95,92,86,30.26,30.12,2,0,5,0.00
2014-11-15,22.6,18.1,13.7,19.4,15.6,11.5,95,90,83,30.28,30.23,2,0,4,0.00
2014-11-16,31.2,22.0,12.8,21.0,16.8,10.4,92,81,63,30.27,30.04,6,2,9,0.00
2014-11-17,35.2,32.9,30.2,31.3,27.7,20.5,94,81,63,30.13,29.91,6,4,9,0.00
2014-11-18,43.9,33.6,29.2,34.6,29.6,27.5,94,85,64,29.91,29.26,10,4,12,0.00
2014-11-19,40.9,33.5,27.3,35.6,30.2,24.2,96,88,69,29.73,29.53,12,2,16,0.14
2014-11-20,39.4,32.4,28.8,28.4,27.1,21.6,95,82,50,29.63,29.15,11,5,15,0.00
2014-11-21,39.8,34.5,29.7,26.1,21.1,14.1,79,60,36,29.15,28.89,14,6,25,0.00
2014-11-22,30.6,27.9,23.3,24.5,22.6,19.2,87,80,70,29.28,28.99,5,2,8,0.00
2014-11-23,29.0,26.9,24.5,26.4,24.3,22.5,94,90,81,29.61,29.28,5,2,9,0.00
2014-11-24,32.0,26.7,23.2,26.2,23.7,20.6,93,89,77,29.97,29.61,3,1,5,0.00
2014-11-25,31.5,28.7,25.0,28.9,26.1,22.7,94,90,82,30.34,29.98,3,1,5,0.00
2014-11-26,29.2,21.4,11.7,27.7,19.7,9.3,95,93,90,30.36,30.28,5,1,11,0.00
2014-11-27,16.2,11.3,5.1,13.8,8.8,2.4,92,90,87,30.29,30.19,4,0,9,0.00
2014-11-28,20.3,15.1,6.2,16.5,12.0,3.4,91,88,83,30.22,30.16,4,1,8,0.00
2014-11-29,23.3,21.6,20.2,21.8,19.6,16.5,94,92,85,30.16,30.08,4,1,7,0.00
2014-11-30,23.5,17.6,9.9,22.3,16.1,7.7,95,93,89,30.17,29.98,3,0,6,0.00
2014-12-1,22.2,16.6,12.4,20.7,14.8,10.3,94,92,91,29.99,29.66,5,2,9,0.00
2014-12-2,33.4,27.3,22.3,31.6,25.8,20.8,96,94,90,29.71,29.50,10,4,14,0.00
2014-12-3,29.7,27.2,25.8,28.0,25.8,24.6,97,94,90,29.89,29.71,5,2,9,0.00
2014-12-4,28.1,26.3,23.2,27.1,25.2,22.0,96,95,95,29.90,29.81,5,3,9,0.00
2014-12-5,24.2,19.0,14.6,23.2,17.1,12.6,96,92,88,29.82,29.60,4,1,8,0.00
2014-12-6,27.8,21.9,17.1,25.0,18.9,14.4,91,88,86,29.60,29.47,6,3,12,0.00
2014-12-7,39.9,32.0,27.6,31.9,28.3,24.8,92,86,70,29.54,29.16,7,4,14,0.05
2014-12-8,41.9,32.2,27.4,30.5,28.3,25.6,94,86,60,29.16,28.74,9,4,12,0.01
2014-12-9,41.0,31.9,28.5,30.0,27.9,26.3,94,86,62,28.93,28.76,11,2,18,0.07
2014-12-10,30.3,22.9,12.6,28.8,21.5,10.5,96,94,91,29.11,28.93,2,0,3,0.00
2014-12-11,23.3,17.9,9.8,22.1,16.4,7.7,95,94,90,29.29,29.11,0,0,0,0.00
2014-12-12,22.6,17.4,8.7,21.4,15.7,6.6,95,93,87,29.66,29.29,1,0,2,0.00
2014-12-13,25.4,16.6,3.9,22.9,14.5,1.2,94,91,87,29.78,29.66,6,1,9,0.00
2014-12-14,37.0,30.5,25.6,28.5,25.6,22.8,89,82,64,29.66,29.17,8,5,14,0.00
2014-12-15,37.4,30.6,26.7,30.0,26.3,23.4,91,84,71,29.19,29.08,5,3,9,0.00
2014-12-16,37.6,30.6,22.8,32.9,27.1,21.1,96,87,69,29.39,29.04,9,2,11,0.00
2014-12-17,31.5,27.8,21.5,29.3,25.9,20.0,95,93,87,29.63,29.40,3,1,6,0.00
2014-12-18,22.2,15.9,12.1,20.9,14.0,9.7,95,92,90,29.62,29.24,4,1,8,0.00
2014-12-19,20.0,16.9,13.2,16.8,13.3,10.1,91,85,80,29.24,29.12,5,1,7,0.00
2014-12-20,18.0,13.1,7.7,14.8,10.3,5.1,91,88,83,29.13,28.88,4,1,8,0.00
2014-12-21,24.3,20.0,12.2,22.1,17.9,9.6,93,91,88,29.56,28.98,4,1,6,0.00
2014-12-22,26.1,23.9,20.2,24.3,22.3,18.2,95,94,92,29.82,29.57,2,0,5,0.00
2014-12-23,25.4,20.9,16.5,24.2,19.5,14.8,96,94,93,29.82,29.69,1,0,3,0.00
2014-12-24,24.8,21.4,13.2,23.5,19.8,11.3,95,93,91,29.70,29.63,4,1,8,0.00
2014-12-25,36.4,28.9,24.1,32.7,25.0,22.6,96,86,65,29.81,29.54,12,5,20,0.01
2014-12-26,36.7,32.8,29.4,30.6,28.6,25.3,97,85,68,30.23,29.81,10,6,14,0.00
2014-12-27,29.4,23.8,17.9,28.4,22.4,16.0,96,94,92,30.53,30.23,4,1,8,0.00
2014-12-28,23.5,20.3,17.5,21.0,18.0,15.6,92,91,88,30.51,30.39,4,2,7,0.00
2014-12-29,38.8,30.9,23.5,27.3,24.6,21.0,91,78,58,30.38,30.26,9,3,13,0.00
2014-12-30,40.6,32.4,26.2,31.3,28.4,25.0,97,85,61,30.28,30.05,8,2,16,0.00
2014-12-31,39.4,35.4,27.4,36.1,33.2,26.4,97,92,84,30.31,30.15,8,3,11,0.14
2015-1-1,33.1,31.7,27.8,32.1,30.1,22.3,98,94,79,30.19,29.89,5,2,9,0.04
2015-1-2,28.0,22.1,7.7,22.3,13.6,4.8,89,72,41,30.36,30.01,11,4,18,0.00